Time;durP1;ratioP1;P1;durP2;ratioP2;P2;SDS_P1;SDS_P2;PMS_P1;PMS_P2;Temp;Humidity;BMP_temperature;BMP_pressure;BME280_temperature;BME280_humidity;BME280_pressure;Samples;Min_cycle;Max_cycle;Signal;HPM_P1;HPM_P2
2023/09/11 00:02:21;;;;;;;17.90;12.73;;;;;;;-142.75;100.00;75377.56;4992915;28;20069;-63
2023/09/11 00:04:46;;;;;;;14.73;11.23;;;;;;;-142.75;100.00;75375.59;4989740;28;20041;-63
2023/09/11 00:07:11;;;;;;;17.92;11.13;;;;;;;-142.75;100.00;75365.75;4992437;28;20541;-63
2023/09/11 00:09:37;;;;;;;15.43;10.07;;;;;;;-142.75;100.00;75361.84;4995111;28;20029;-63
2023/09/11 00:12:03;;;;;;;13.63;10.27;;;;;;;-142.75;100.00;75359.88;4993322;28;20435;-63
2023/09/11 00:14:28;;;;;;;14.13;11.02;;;;;;;-142.75;100.00;75359.88;4992095;28;20084;-63
2023/09/11 00:16:54;;;;;;;15.55;10.48;;;;;;;-142.75;100.00;75361.84;4994350;28;20429;-63
2023/09/11 00:19:19;;;;;;;15.13;11.20;;;;;;;-142.75;100.00;75377.56;4994683;28;20038;-63
2023/09/11 00:21:44;;;;;;;15.75;11.63;;;;;;;-142.75;100.00;75405.13;4990127;28;20021;-62
2023/09/11 00:24:10;;;;;;;18.15;11.20;;;;;;;-142.75;100.00;75393.31;4991994;28;20113;-62
2023/09/11 00:26:35;;;;;;;15.48;10.80;;;;;;;-142.75;100.00;75401.19;4995749;28;20053;-62
2023/09/11 00:29:00;;;;;;;16.80;10.82;;;;;;;-142.75;100.00;75401.19;4992032;28;20049;-62
2023/09/11 00:31:26;;;;;;;15.80;11.57;;;;;;;-142.75;100.00;75397.25;4990722;28;20383;-62
2023/09/11 00:33:51;;;;;;;14.98;10.60;;;;;;;-142.75;100.00;75389.38;4988636;28;20030;-62
2023/09/11 00:36:16;;;;;;;19.58;11.68;;;;;;;-142.75;100.00;75389.38;4987736;28;20030;-62
2023/09/11 00:38:42;;;;;;;18.52;10.40;;;;;;;-142.75;100.00;75381.50;4987464;28;20030;-62
2023/09/11 00:41:07;;;;;;;15.15;11.05;;;;;;;-142.75;100.00;75387.41;5005286;28;20030;-62
2023/09/11 00:43:32;;;;;;;17.60;11.30;;;;;;;-142.75;100.00;75379.53;5003996;28;20444;-62
2023/09/11 00:45:58;;;;;;;15.73;11.27;;;;;;;-142.75;100.00;75365.75;4987653;28;20022;-62
2023/09/11 00:48:24;;;;;;;12.10;10.55;;;;;;;-142.75;100.00;75355.94;4992775;28;20036;-62
2023/09/11 00:50:50;;;;;;;14.15;10.70;;;;;;;-142.75;100.00;75342.16;5006945;28;20452;-62
2023/09/11 00:53:17;;;;;;;14.05;11.48;;;;;;;-142.75;100.00;75334.28;5006850;28;20028;-62
2023/09/11 00:55:44;;;;;;;16.60;11.18;;;;;;;-142.75;100.00;75344.13;5004390;28;20026;-62
2023/09/11 00:58:10;;;;;;;14.65;10.15;;;;;;;-142.75;100.00;75352.00;5002862;28;20108;-62
2023/09/11 01:00:35;;;;;;;13.57;9.43;;;;;;;-142.75;100.00;75363.78;5006681;28;20137;-63
2023/09/11 01:03:00;;;;;;;16.20;10.00;;;;;;;-142.75;100.00;75357.91;5007074;28;20034;-62
2023/09/11 01:05:29;;;;;;;13.93;10.32;;;;;;;-142.75;100.00;75355.94;5006369;28;20420;-62
2023/09/11 01:07:54;;;;;;;15.00;11.20;;;;;;;-142.75;100.00;75350.03;5006849;28;20396;-62
2023/09/11 01:10:20;;;;;;;17.50;12.10;;;;;;;-142.75;100.00;75330.34;5006413;28;20042;-62
2023/09/11 01:12:45;;;;;;;15.88;11.02;;;;;;;-142.75;100.00;75326.41;5003588;28;20026;-62
2023/09/11 01:15:11;;;;;;;23.70;11.00;;;;;;;-142.75;100.00;75336.25;4995817;28;20021;-62
2023/09/11 01:18:10;;;;;;;15.52;10.02;;;;;;;-142.75;100.00;75350.03;5006436;28;20060;-62
2023/09/11 01:21:00;;;;;;;17.75;10.23;;;;;;;-142.75;100.00;75359.88;5006400;28;20030;-64
2023/09/11 01:23:38;;;;;;;13.27;9.93;;;;;;;-142.75;100.00;75363.78;5002221;28;20034;-64
2023/09/11 01:26:05;;;;;;;14.68;11.05;;;;;;;-142.75;100.00;75369.69;4985772;28;20493;-64
2023/09/11 01:28:55;;;;;;;17.63;12.90;;;;;;;-142.75;100.00;75365.75;4996368;28;20489;-64
2023/09/11 01:31:24;;;;;;;18.27;11.40;;;;;;;-142.75;100.00;75353.97;5000031;28;20030;-64
2023/09/11 01:33:59;;;;;;;20.08;12.40;;;;;;;-142.75;100.00;75346.09;4986299;28;20030;-62
2023/09/11 01:36:25;;;;;;;19.50;13.25;;;;;;;-142.75;100.00;75344.13;4995519;28;20034;-62
2023/09/11 01:38:50;;;;;;;16.85;12.80;;;;;;;-142.75;100.00;75342.16;5006115;28;20026;-62
2023/09/11 01:41:17;;;;;;;16.98;12.63;;;;;;;-142.75;100.00;75342.16;5005742;28;20049;-62
2023/09/11 01:43:44;;;;;;;17.40;12.45;;;;;;;-142.75;100.00;75350.03;5004560;28;20034;-62
2023/09/11 01:46:11;;;;;;;18.25;12.00;;;;;;;-142.75;100.00;75348.06;5006076;28;20095;-62
2023/09/11 01:48:40;;;;;;;18.50;12.70;;;;;;;-142.75;100.00;75338.22;4993068;28;20046;-62
2023/09/11 01:51:07;;;;;;;16.42;11.95;;;;;;;-142.75;100.00;75322.47;4986292;28;20496;-62
2023/09/11 01:53:32;;;;;;;16.80;13.18;;;;;;;-142.75;100.00;75330.34;4986190;28;20018;-62
2023/09/11 01:55:58;;;;;;;19.92;12.93;;;;;;;-142.75;100.00;75350.03;4992454;28;20401;-62
2023/09/11 01:58:24;;;;;;;18.90;13.23;;;;;;;-142.75;100.00;75348.06;4999173;28;20049;-62
2023/09/11 02:00:49;;;;;;;20.38;13.55;;;;;;;-142.75;100.00;75361.84;5006177;28;20425;-62
2023/09/11 02:03:16;;;;;;;17.23;13.48;;;;;;;-142.75;100.00;75359.88;5006089;28;20022;-62
2023/09/11 02:05:42;;;;;;;20.13;14.07;;;;;;;-142.75;100.00;75365.75;5005763;28;20079;-62
2023/09/11 02:08:07;;;;;;;19.98;13.23;;;;;;;-142.75;100.00;75385.44;5004041;28;20603;-62
2023/09/11 02:10:33;;;;;;;19.25;13.40;;;;;;;-142.75;100.00;75373.63;4995539;28;20521;-62
2023/09/11 02:12:58;;;;;;;18.30;13.55;;;;;;;-142.75;100.00;75389.38;5003357;28;20030;-64
2023/09/11 02:15:23;;;;;;;17.55;13.02;;;;;;;-142.75;100.00;75381.50;5005461;28;20116;-63
2023/09/11 02:17:48;;;;;;;20.85;14.02;;;;;;;-142.75;100.00;75375.59;5004334;28;20018;-63
2023/09/11 02:20:14;;;;;;;19.02;13.95;;;;;;;-142.75;100.00;75387.41;5005145;28;20033;-63
2023/09/11 02:22:39;;;;;;;17.38;14.10;;;;;;;-142.75;100.00;75385.44;5005508;28;20045;-63
2023/09/11 02:25:05;;;;;;;17.58;14.18;;;;;;;-142.75;100.00;75401.19;5005361;28;20220;-63
2023/09/11 02:27:30;;;;;;;23.00;14.40;;;;;;;-142.75;100.00;75405.13;5003990;28;20022;-64
2023/09/11 02:29:56;;;;;;;19.90;15.05;;;;;;;-142.75;100.00;75397.25;4999460;28;20097;-63
2023/09/11 02:32:21;;;;;;;19.75;14.65;;;;;;;-142.75;100.00;75405.13;4985205;28;20038;-63
2023/09/11 02:34:46;;;;;;;21.88;15.57;;;;;;;-142.75;100.00;75418.91;4998516;28;20109;-63
2023/09/11 02:37:12;;;;;;;24.77;16.25;;;;;;;-142.75;100.00;75428.75;4985876;28;20145;-63
2023/09/11 02:39:38;;;;;;;22.55;15.27;;;;;;;-142.75;100.00;75420.88;4985575;28;20045;-63
2023/09/11 02:42:04;;;;;;;19.40;14.15;;;;;;;-142.75;100.00;75416.94;4986032;28;20633;-63
2023/09/11 02:44:29;;;;;;;18.42;13.90;;;;;;;-142.75;100.00;75422.84;4985664;28;20041;-63
2023/09/11 02:46:55;;;;;;;19.63;13.93;;;;;;;-142.75;100.00;75414.97;4987157;28;20082;-63
2023/09/11 02:49:20;;;;;;;19.15;14.23;;;;;;;-142.75;100.00;75409.06;4988366;28;20117;-63
2023/09/11 02:51:45;;;;;;;22.42;14.15;;;;;;;-142.75;100.00;75416.94;5005878;28;20050;-63
2023/09/11 02:54:11;;;;;;;20.25;13.63;;;;;;;-142.75;100.00;75409.06;5009166;28;20030;-63
2023/09/11 02:56:38;;;;;;;19.73;13.52;;;;;;;-142.75;100.00;75395.28;5009169;28;20041;-63
2023/09/11 02:59:06;;;;;;;18.00;14.00;;;;;;;-142.75;100.00;75389.38;5008945;28;20103;-63
2023/09/11 03:01:32;;;;;;;22.58;13.80;;;;;;;-142.75;100.00;75379.53;5008727;28;20385;-63
2023/09/11 03:03:58;;;;;;;21.23;14.27;;;;;;;-142.75;100.00;75375.59;5009342;28;20021;-63
2023/09/11 03:06:23;;;;;;;23.48;14.55;;;;;;;-142.75;100.00;75357.91;5008716;28;20029;-63
2023/09/11 03:08:49;;;;;;;19.35;13.57;;;;;;;-142.75;100.00;75355.94;5007556;28;20109;-63
2023/09/11 03:11:14;;;;;;;19.13;13.93;;;;;;;-142.75;100.00;75352.00;5002367;28;20061;-63
2023/09/11 03:13:39;;;;;;;18.33;13.15;;;;;;;-142.75;100.00;75352.00;4989475;28;20034;-63
2023/09/11 03:16:12;;;;;;;18.92;13.88;;;;;;;-142.75;100.00;75353.97;4989081;28;20023;-63
2023/09/11 03:18:38;;;;;;;24.52;14.10;;;;;;;-142.75;100.00;75361.84;4988979;28;20101;-63
2023/09/11 03:21:04;;;;;;;18.25;14.13;;;;;;;-142.75;100.00;75355.94;5002859;28;20026;-63
2023/09/11 03:23:30;;;;;;;18.48;14.00;;;;;;;-142.75;100.00;75373.63;5007225;28;20448;-63
2023/09/11 03:25:55;;;;;;;20.45;13.82;;;;;;;-142.75;100.00;75385.44;5008422;28;20437;-63
2023/09/11 03:28:22;;;;;;;23.00;13.82;;;;;;;-142.75;100.00;75393.31;5008348;28;20037;-63
2023/09/11 03:30:47;;;;;;;22.20;13.45;;;;;;;-142.75;100.00;75371.66;5008219;28;20040;-63
2023/09/11 03:33:13;;;;;;;19.50;15.32;;;;;;;-142.75;100.00;75369.69;5009187;28;20426;-63
2023/09/11 03:35:38;;;;;;;17.55;13.80;;;;;;;-142.75;100.00;75357.91;4989146;28;20034;-63
2023/09/11 03:38:04;;;;;;;18.55;13.75;;;;;;;-142.75;100.00;75357.91;5005653;28;20034;-63
2023/09/11 03:40:29;;;;;;;18.45;14.32;;;;;;;-142.75;100.00;75350.03;5007972;28;20117;-63
2023/09/11 03:42:54;;;;;;;20.27;15.30;;;;;;;-142.75;100.00;75353.97;5002018;28;20028;-63
2023/09/11 03:45:20;;;;;;;18.30;14.50;;;;;;;-142.75;100.00;75369.69;4988909;28;20088;-62
2023/09/11 03:47:46;;;;;;;20.60;14.10;;;;;;;-142.75;100.00;75399.22;5007029;28;20103;-63
2023/09/11 03:50:11;;;;;;;20.33;14.60;;;;;;;-142.75;100.00;75379.53;5008132;28;20485;-62
2023/09/11 03:52:36;;;;;;;17.92;14.38;;;;;;;-142.75;100.00;75373.63;4998910;28;20481;-63
2023/09/11 03:55:03;;;;;;;23.35;15.70;;;;;;;-142.75;100.00;75375.59;4988389;28;20183;-63
2023/09/11 03:57:28;;;;;;;22.75;15.68;;;;;;;-142.75;100.00;75377.56;5003933;28;20022;-63
2023/09/11 03:59:54;;;;;;;20.83;15.40;;;;;;;-142.75;100.00;75381.50;5007926;28;20392;-63
2023/09/11 04:02:19;;;;;;;21.70;15.18;;;;;;;-142.75;100.00;75387.41;5008243;28;20392;-62
2023/09/11 04:04:44;;;;;;;22.40;14.90;;;;;;;-142.75;100.00;75381.50;5007889;28;20022;-63
2023/09/11 04:07:10;;;;;;;19.85;15.55;;;;;;;-142.75;100.00;75371.66;5005736;28;20104;-63
2023/09/11 04:09:35;;;;;;;22.98;16.48;;;;;;;-142.75;100.00;75361.84;4999218;28;20117;-63
2023/09/11 04:12:02;;;;;;;21.02;14.68;;;;;;;-142.75;100.00;75369.69;4988524;28;20041;-63
2023/09/11 04:14:27;;;;;;;20.67;14.65;;;;;;;-142.75;100.00;75381.50;5004994;28;20026;-63
2023/09/11 04:16:53;;;;;;;23.80;15.82;;;;;;;-142.75;100.00;75383.47;5007878;28;20025;-63
2023/09/11 04:19:18;;;;;;;23.20;16.80;;;;;;;-142.75;100.00;75381.50;5007306;28;20109;-63
2023/09/11 04:21:43;;;;;;;20.65;14.63;;;;;;;-142.75;100.00;75379.53;5007419;28;20690;-63
2023/09/11 04:24:12;;;;;;;19.83;14.18;;;;;;;-142.75;100.00;75399.22;5006220;28;20444;-63
2023/09/11 04:26:39;;;;;;;23.88;15.02;;;;;;;-142.75;100.00;75397.25;5007568;28;20030;-63
2023/09/11 04:29:05;;;;;;;24.13;15.38;;;;;;;-142.75;100.00;75393.31;5007350;28;20579;-63
2023/09/11 04:31:30;;;;;;;17.85;12.25;;;;;;;-142.75;100.00;75391.34;5007442;28;20030;-63
2023/09/11 04:33:56;;;;;;;23.45;13.55;;;;;;;-142.75;100.00;75385.44;5005405;28;20034;-63
2023/09/11 04:36:21;;;;;;;16.80;13.15;;;;;;;-142.75;100.00;75403.16;4987883;28;20037;-63
2023/09/11 04:38:46;;;;;;;17.27;12.93;;;;;;;-142.75;100.00;75411.03;4987543;28;20029;-63
2023/09/11 04:41:12;;;;;;;16.90;11.00;;;;;;;-142.75;100.00;75414.97;5004931;28;20481;-63
2023/09/11 04:43:37;;;;;;;19.20;11.88;;;;;;;-142.75;100.00;75426.78;5006909;28;20426;-63
2023/09/11 04:46:02;;;;;;;17.63;11.13;;;;;;;-142.75;100.00;75422.84;5006763;28;20072;-63
2023/09/11 04:48:28;;;;;;;17.35;11.10;;;;;;;-142.75;100.00;75440.53;5006970;28;20021;-63
2023/09/11 04:50:54;;;;;;;15.82;11.10;;;;;;;-142.75;100.00;75458.25;5005608;28;20048;-63
2023/09/11 04:53:19;;;;;;;17.65;11.05;;;;;;;-142.75;100.00;75458.25;4993114;28;20059;-63
2023/09/11 04:55:46;;;;;;;13.60;10.95;;;;;;;-142.75;100.00;75460.22;4988629;28;20104;-63
2023/09/11 04:58:12;;;;;;;15.68;11.38;;;;;;;-142.75;100.00;75456.28;5006119;28;20112;-63
2023/09/11 05:00:37;;;;;;;21.90;11.75;;;;;;;-142.75;100.00;75468.09;5006740;28;20478;-63
2023/09/11 05:03:03;;;;;;;16.17;10.85;;;;;;;-142.75;100.00;75464.16;5007643;28;20041;-63
2023/09/11 05:05:28;;;;;;;16.52;11.30;;;;;;;-142.75;100.00;75458.25;5006689;28;20018;-63
2023/09/11 05:07:54;;;;;;;15.55;10.25;;;;;;;-142.75;100.00;75452.34;5006975;28;20116;-63
2023/09/11 05:10:20;;;;;;;15.48;10.82;;;;;;;-142.75;100.00;75456.28;4986259;28;20070;-63
2023/09/11 05:12:46;;;;;;;18.10;10.77;;;;;;;-142.75;100.00;75450.38;4985862;28;20117;-63
2023/09/11 05:15:12;;;;;;;17.02;11.68;;;;;;;-142.75;100.00;75464.16;4988333;28;20485;-64
2023/09/11 05:17:38;;;;;;;15.55;10.52;;;;;;;-142.75;100.00;75456.28;4987079;28;20029;-63
2023/09/11 05:20:06;;;;;;;17.15;11.25;;;;;;;-142.75;100.00;75460.22;4986753;28;20021;-64
2023/09/11 05:22:32;;;;;;;16.48;10.82;;;;;;;-142.75;100.00;75468.09;4988113;28;20081;-64
2023/09/11 05:24:58;;;;;;;18.40;11.32;;;;;;;-142.75;100.00;75458.25;4999249;28;20419;-63
2023/09/11 05:27:23;;;;;;;14.18;10.70;;;;;;;-142.75;100.00;75442.50;5003021;28;20019;-64
2023/09/11 05:29:48;;;;;;;21.10;12.38;;;;;;;-142.75;100.00;75450.38;4995735;28;20104;-64
2023/09/11 05:32:14;;;;;;;19.77;11.52;;;;;;;-142.75;100.00;75452.34;5006435;28;20064;-63
2023/09/11 05:34:39;;;;;;;19.98;10.77;;;;;;;-142.75;100.00;75452.34;5006573;28;20032;-64
2023/09/11 05:37:04;;;;;;;17.35;11.80;;;;;;;-142.75;100.00;75454.31;5006533;28;20028;-63
2023/09/11 05:39:31;;;;;;;15.93;10.95;;;;;;;-142.75;100.00;75448.41;4991202;28;20106;-63
2023/09/11 05:41:57;;;;;;;17.15;11.00;;;;;;;-142.75;100.00;75448.41;4986318;28;20026;-63
2023/09/11 05:44:22;;;;;;;18.00;11.07;;;;;;;-142.75;100.00;75444.47;4987340;28;20507;-64
2023/09/11 05:46:49;;;;;;;17.75;11.45;;;;;;;-142.75;100.00;75448.41;5006133;28;20671;-63
2023/09/11 05:49:14;;;;;;;18.23;12.48;;;;;;;-142.75;100.00;75442.50;5005623;28;20628;-63
2023/09/11 05:51:40;;;;;;;17.55;10.80;;;;;;;-142.75;100.00;75448.41;5000073;28;20026;-64
2023/09/11 05:54:05;;;;;;;18.33;10.93;;;;;;;-142.75;100.00;75446.44;4986298;28;20499;-63
2023/09/11 05:56:31;;;;;;;15.05;10.75;;;;;;;-142.75;100.00;75444.47;4991673;28;20025;-63
2023/09/11 05:58:56;;;;;;;17.75;11.20;;;;;;;-142.75;100.00;75432.69;5005437;28;20022;-63
2023/09/11 06:01:21;;;;;;;18.38;10.95;;;;;;;-142.75;100.00;75438.56;5005857;28;20341;-63
2023/09/11 06:03:47;;;;;;;15.45;11.00;;;;;;;-142.75;100.00;75448.41;5001174;28;20488;-63
2023/09/11 06:06:12;;;;;;;22.08;11.95;;;;;;;-142.75;100.00;75456.28;5004000;28;20069;-63
2023/09/11 06:08:38;;;;;;;18.55;12.55;;;;;;;-142.75;100.00;75466.13;5002667;28;20105;-63
2023/09/11 06:11:03;;;;;;;23.00;12.18;;;;;;;-142.75;100.00;75428.75;4985949;28;20105;-63
2023/09/11 06:13:31;;;;;;;20.95;13.57;;;;;;;-142.75;100.00;75413.00;4986388;28;20113;-64
2023/09/11 06:15:56;;;;;;;23.25;15.05;;;;;;;-142.75;100.00;75413.00;4989297;28;20032;-63
2023/09/11 06:18:22;;;;;;;28.63;16.38;;;;;;;-142.75;100.00;75401.19;5005725;28;20030;-63
2023/09/11 06:20:47;;;;;;;27.88;16.17;;;;;;;-142.75;100.00;75387.41;4997131;28;20022;-63
2023/09/11 06:23:12;;;;;;;22.58;15.85;;;;;;;-142.75;100.00;75375.59;5005480;28;20053;-63
2023/09/11 06:25:38;;;;;;;23.25;16.08;;;;;;;-142.75;100.00;75385.44;5005348;28;20136;-64
2023/09/11 06:28:04;;;;;;;23.98;15.68;;;;;;;-142.75;100.00;75383.47;5004387;28;20025;-63
2023/09/11 06:30:31;;;;;;;24.70;16.75;;;;;;;-142.75;100.00;75385.44;4987299;28;20486;-63
2023/09/11 06:32:57;;;;;;;26.95;18.75;;;;;;;-142.75;100.00;75383.47;4986184;28;20019;-63
2023/09/11 06:35:22;;;;;;;27.27;18.88;;;;;;;-142.75;100.00;75395.28;4986173;28;20026;-64
2023/09/11 06:37:48;;;;;;;26.80;17.42;;;;;;;-142.75;100.00;75389.38;4985801;28;20027;-64
2023/09/11 06:40:14;;;;;;;29.60;18.02;;;;;;;-142.75;100.00;75383.47;4993651;28;20492;-64
2023/09/11 06:42:40;;;;;;;31.55;19.15;;;;;;;-142.75;100.00;75381.50;4989201;28;20600;-63
2023/09/11 06:45:06;;;;;;;27.20;18.58;;;;;;;-142.75;100.00;75371.66;5005319;28;20084;-63
2023/09/11 06:47:31;;;;;;;29.33;19.73;;;;;;;-142.75;100.00;75365.75;5005189;28;20042;-63
2023/09/11 06:49:56;;;;;;;33.85;19.52;;;;;;;-142.75;100.00;75353.97;5004928;28;20022;-63
2023/09/11 06:52:22;;;;;;;31.60;19.23;;;;;;;-142.75;100.00;75334.28;4987421;28;20065;-64
2023/09/11 06:54:47;;;;;;;27.48;19.63;;;;;;;-142.75;100.00;75336.25;4985604;28;20030;-64
2023/09/11 06:57:13;;;;;;;36.38;19.80;;;;;;;-142.75;100.00;75365.75;4985592;28;20058;-63
2023/09/11 06:59:39;;;;;;;32.92;19.95;;;;;;;-142.75;100.00;75359.88;5002319;28;20080;-64
2023/09/11 07:02:04;;;;;;;33.10;20.55;;;;;;;-142.75;100.00;75377.56;5003145;28;20488;-63
2023/09/11 07:04:33;;;;;;;30.05;19.40;;;;;;;-142.75;100.00;75365.75;4986062;28;20057;-63
2023/09/11 07:06:58;;;;;;;29.10;19.73;;;;;;;-142.75;100.00;75373.63;4992480;28;20452;-63
2023/09/11 07:09:23;;;;;;;33.88;21.00;;;;;;;-142.75;100.00;75365.75;4985377;28;20026;-63
2023/09/11 07:11:50;;;;;;;33.00;20.17;;;;;;;-142.75;100.00;75348.06;4985450;28;20133;-63
2023/09/11 07:14:20;;;;;;;32.88;20.90;;;;;;;-142.75;100.00;75355.94;4990101;28;20018;-64
2023/09/11 07:16:45;;;;;;;29.42;21.55;;;;;;;-142.75;100.00;75342.16;4985391;28;20149;-63
2023/09/11 07:19:10;;;;;;;32.83;21.27;;;;;;;-142.75;100.00;75334.28;4984074;28;20104;-63
2023/09/11 07:21:36;;;;;;;32.78;20.80;;;;;;;-142.75;100.00;75348.06;4985509;28;20033;-63
2023/09/11 07:24:01;;;;;;;29.77;21.45;;;;;;;-142.75;100.00;75340.19;4985575;28;20049;-64
2023/09/11 07:26:26;;;;;;;28.60;19.48;;;;;;;-142.75;100.00;75348.06;4988054;28;20440;-64
2023/09/11 07:28:56;;;;;;;26.30;19.27;;;;;;;-142.75;100.00;75346.09;4994194;28;20428;-63
2023/09/11 07:31:22;;;;;;;36.53;21.88;;;;;;;-142.75;100.00;75342.16;4997976;28;20029;-64
2023/09/11 07:33:48;;;;;;;30.05;19.95;;;;;;;-142.75;100.00;75322.47;5025873;22;20046;-59
2023/09/11 07:36:13;;;;;;;29.42;20.95;;;;;;;-142.75;100.00;75310.66;4990580;28;20657;-59
2023/09/11 07:38:44;;;;;;;30.30;21.10;;;;;;;-142.75;100.00;75271.31;4994013;28;20033;-58
2023/09/11 07:41:16;;;;;;;30.08;20.50;;;;;;;-142.75;100.00;75255.56;4989071;28;20022;-59
2023/09/11 07:43:48;;;;;;;34.13;20.50;;;;;;;-142.75;100.00;75233.91;4992397;28;20136;-59
2023/09/11 07:46:14;;;;;;;32.47;20.40;;;;;;;-142.75;100.00;75243.75;5008052;28;20030;-58
2023/09/11 07:48:39;;;;;;;32.65;18.30;;;;;;;-142.75;100.00;75231.94;4992604;28;20389;-59
2023/09/11 07:51:05;;;;;;;30.35;19.23;;;;;;;-142.75;100.00;75214.25;5008044;28;20101;-58
2023/09/11 07:53:30;;;;;;;31.42;18.67;;;;;;;-142.75;100.00;75200.47;5009343;28;20733;-58
2023/09/11 07:55:56;;;;;;;28.23;18.90;;;;;;;-142.75;100.00;75188.66;5009311;28;20052;-59
2023/09/11 07:58:22;;;;;;;29.05;19.08;;;;;;;-142.75;100.00;75180.78;5009444;28;20436;-59
2023/09/11 08:00:47;;;;;;;28.23;18.33;;;;;;;-142.75;100.00;75168.97;4999735;28;20040;-60
2023/09/11 08:03:12;;;;;;;28.30;18.67;;;;;;;-142.75;100.00;75165.03;5001277;28;20056;-57
2023/09/11 08:05:38;;;;;;;31.67;18.60;;;;;;;-142.75;100.00;75165.03;4996933;28;20015;-59
2023/09/11 08:08:03;;;;;;;33.53;18.88;;;;;;;-142.75;100.00;75141.44;4999230;28;20057;-60
2023/09/11 08:10:29;;;;;;;28.02;18.35;;;;;;;-142.75;100.00;75125.69;4998620;28;20053;-59
2023/09/11 08:12:55;;;;;;;26.15;17.80;;;;;;;-142.75;100.00;75113.88;4999735;28;20359;-60
2023/09/11 08:15:20;;;;;;;27.48;17.27;;;;;;;-142.75;100.00;75102.06;5002044;28;20110;-60
2023/09/11 08:17:46;;;;;;;25.25;17.67;;;;;;;-142.75;100.00;75092.25;5003065;28;20110;-59
2023/09/11 08:20:12;;;;;;;31.98;16.48;;;;;;;-142.75;100.00;75086.34;4999681;28;20116;-59
2023/09/11 08:22:39;;;;;;;24.63;16.27;;;;;;;-142.75;100.00;75086.34;5000375;28;20037;-56
2023/09/11 08:25:05;;;;;;;23.48;15.35;;;;;;;-142.75;100.00;75052.88;5000847;28;20030;-61
2023/09/11 08:27:31;;;;;;;25.10;15.55;;;;;;;-142.75;100.00;75046.97;5000674;28;20036;-60
2023/09/11 08:29:57;;;;;;;27.67;15.93;;;;;;;-142.75;100.00;75054.84;4999126;28;20030;-58
2023/09/11 08:32:23;;;;;;;24.55;14.73;;;;;;;-142.75;100.00;75025.34;5001520;28;20076;-60
2023/09/11 08:34:48;;;;;;;21.50;13.98;;;;;;;-142.75;100.00;75017.47;5002265;28;20457;-59
2023/09/11 08:37:13;;;;;;;20.33;13.27;;;;;;;-142.75;100.00;75015.50;5000503;28;20033;-58
2023/09/11 08:39:39;;;;;;;22.27;12.93;;;;;;;-142.75;100.00;75003.69;5001397;28;20030;-59
2023/09/11 08:42:04;;;;;;;18.00;10.63;;;;;;;-142.75;100.00;74984.00;4996334;28;20083;-60
2023/09/11 08:44:30;;;;;;;14.23;7.53;;;;;;;-142.75;100.00;74978.13;4998685;28;20057;-58
2023/09/11 08:46:59;;;;;;;13.63;6.55;;;;;;;-142.75;100.00;74976.16;4999333;28;20396;-60
2023/09/11 08:49:28;;;;;;;11.38;5.55;;;;;;;-142.75;100.00;74991.88;4994740;28;20122;-60
2023/09/11 08:51:55;;;;;;;9.35;4.63;;;;;;;-142.75;100.00;74972.22;4989448;28;20112;-60
2023/09/11 08:54:27;;;;;;;9.75;5.03;;;;;;;-142.75;100.00;74956.47;4991953;28;20034;-59
2023/09/11 08:56:54;;;;;;;9.27;4.88;;;;;;;-142.75;100.00;74938.75;5005127;28;20025;-59
2023/09/11 08:59:23;;;;;;;11.43;4.90;;;;;;;-142.75;100.00;74946.63;4987244;28;20029;-59
2023/09/11 09:01:50;;;;;;;6.72;4.60;;;;;;;-142.75;100.00;74938.75;4992421;28;20030;-60
2023/09/11 09:04:17;;;;;;;9.50;5.03;;;;;;;-142.75;100.00;74913.19;4988910;28;20026;-59
2023/09/11 09:06:45;;;;;;;8.15;4.72;;;;;;;-142.75;100.00;74928.91;4987814;28;20037;-60
2023/09/11 09:09:11;;;;;;;10.73;4.88;;;;;;;-142.75;100.00;74968.28;4988169;28;20022;-59
2023/09/11 09:11:37;;;;;;;7.63;4.53;;;;;;;-142.75;100.00;74995.81;4987715;28;20397;-59
2023/09/11 09:14:06;;;;;;;10.10;5.15;;;;;;;-142.75;100.00;74980.06;4989387;28;20022;-59
2023/09/11 09:16:32;;;;;;;7.68;4.28;;;;;;;-142.75;100.00;74978.13;4987381;28;20053;-59
2023/09/11 09:18:57;;;;;;;6.72;4.38;;;;;;;-142.75;100.00;74958.44;4988305;28;20056;-50
2023/09/11 09:21:25;;;;;;;7.10;3.85;;;;;;;-142.75;100.00;74946.63;4987278;28;20077;-56
2023/09/11 09:23:53;;;;;;;7.25;3.95;;;;;;;-142.75;100.00;74928.91;5000001;28;20050;-58
2023/09/11 09:26:19;;;;;;;7.60;4.20;;;;;;;-142.75;100.00;74926.94;4987944;28;20393;-59
2023/09/11 09:28:48;;;;;;;6.13;3.67;;;;;;;-142.75;100.00;74909.25;5005162;28;20025;-58
2023/09/11 09:31:24;;;;;;;10.10;3.72;;;;;;;-142.75;100.00;74905.31;5006635;28;20036;-59
2023/09/11 09:33:55;;;;;;;10.10;4.07;;;;;;;-142.75;100.00;74881.69;5006033;28;20134;-59
2023/09/11 09:36:22;;;;;;;6.15;3.10;;;;;;;-142.75;100.00;74862.03;5007054;28;20022;-58
2023/09/11 09:38:47;;;;;;;7.82;3.90;;;;;;;-142.75;100.00;74862.03;5006768;28;20062;-59
2023/09/11 09:41:13;;;;;;;8.43;3.75;;;;;;;-142.75;100.00;74842.34;5006572;28;20054;-59
2023/09/11 09:43:39;;;;;;;7.97;4.07;;;;;;;-142.75;100.00;74818.72;5006506;28;20029;-59
2023/09/11 09:46:22;;;;;;;6.18;3.85;;;;;;;-142.75;100.00;74822.66;5006237;28;20038;-57
2023/09/11 09:48:47;;;;;;;9.73;3.67;;;;;;;-142.75;98.05;74810.88;4999313;28;20044;-58
2023/09/11 09:51:13;;;;;;;8.68;3.83;;;;;;;-142.75;97.18;74791.19;4986906;28;20026;-58
2023/09/11 09:53:41;;;;;;;7.03;3.47;;;;;;;-142.75;96.32;74791.19;4987168;28;20018;-60
2023/09/11 09:56:08;;;;;;;8.82;3.28;;;;;;;-142.75;97.24;74783.31;4986985;28;20022;-59
2023/09/11 09:58:38;;;;;;;8.35;3.63;;;;;;;-142.75;96.66;74779.38;4987699;28;20053;-60
2023/09/11 10:01:12;;;;;;;8.52;3.65;;;;;;;-142.75;95.35;74775.44;4987283;28;20501;-59
2023/09/11 10:03:41;;;;;;;8.55;3.53;;;;;;;-142.75;95.03;74759.72;4987026;28;20052;-59
2023/09/11 10:06:09;;;;;;;11.07;3.70;;;;;;;-142.75;96.59;74771.50;4987598;28;20379;-57
2023/09/11 10:08:34;;;;;;;10.20;4.15;;;;;;;-142.75;97.51;74759.72;4987603;28;20046;-60
2023/09/11 10:11:00;;;;;;;8.43;3.55;;;;;;;-142.75;94.44;74749.88;4989811;28;20026;-60
2023/09/11 10:13:27;;;;;;;8.20;3.65;;;;;;;-142.75;96.01;74749.88;4991309;28;20033;-61
2023/09/11 10:15:56;;;;;;;10.55;3.97;;;;;;;-142.75;96.09;74742.00;4988547;28;20639;-60
2023/09/11 10:18:22;;;;;;;8.23;3.85;;;;;;;-142.75;96.42;74718.38;4985649;28;20110;-60
2023/09/11 10:20:49;;;;;;;5.45;3.50;;;;;;;-142.75;96.71;74700.69;4986233;28;20413;-60
2023/09/11 10:23:14;;;;;;;11.23;3.70;;;;;;;-142.75;93.07;74700.69;4988469;28;20025;-60
2023/09/11 10:25:44;;;;;;;6.63;3.72;;;;;;;-142.75;94.22;74686.91;4987370;28;20509;-60
2023/09/11 10:28:20;;;;;;;12.02;4.15;;;;;;;-142.75;95.91;74671.16;4992034;28;20573;-60
2023/09/11 10:30:55;;;;;;;7.40;3.88;;;;;;;-142.75;89.81;74681.00;4991241;28;20146;-60
2023/09/11 10:33:23;;;;;;;6.68;3.95;;;;;;;-142.75;90.48;74684.94;4986978;28;20033;-60
2023/09/11 10:35:54;;;;;;;8.75;4.05;;;;;;;-142.75;92.29;74677.06;4986491;28;20026;-60
2023/09/11 10:38:19;;;;;;;9.43;4.00;;;;;;;-142.75;90.61;74661.31;4986486;28;20033;-60
2023/09/11 10:40:47;;;;;;;8.85;4.60;;;;;;;-142.75;92.76;74669.19;4986392;28;20438;-60
2023/09/11 10:43:13;;;;;;;11.77;4.95;;;;;;;-142.75;94.20;74677.06;4987382;28;21233;-60
2023/09/11 10:45:40;;;;;;;12.13;4.43;;;;;;;-142.75;92.60;74665.25;4986605;28;20041;-60
2023/09/11 10:48:05;;;;;;;15.23;4.65;;;;;;;-142.75;93.91;74661.31;4986228;28;20502;-60
2023/09/11 10:50:38;;;;;;;13.65;4.90;;;;;;;-142.75;91.91;74661.31;4985565;28;20026;-58
2023/09/11 10:53:05;;;;;;;9.73;4.70;;;;;;;-142.75;91.99;74688.88;4987505;28;20030;-61
2023/09/11 10:55:32;;;;;;;10.18;5.60;;;;;;;-142.75;92.93;74663.28;5005076;28;20076;-60